createdAt,value
2023-01-13T00:01:23.178Z,99877.34
2023-01-13T00:03:35.938Z,99878.02
2023-01-13T00:05:47.784Z,99873.98
2023-01-13T00:08:00.091Z,99876.36
2023-01-13T00:10:11.876Z,99879.20
2023-01-13T00:12:24.278Z,99872.95
2023-01-13T00:14:36.584Z,99869.45
2023-01-13T00:16:48.164Z,99868.23
2023-01-13T00:19:00.364Z,99867.29
2023-01-13T00:21:19.829Z,99868.00
2023-01-13T00:23:33.816Z,99861.83
2023-01-13T00:25:45.973Z,99862.02
2023-01-13T00:27:57.865Z,99858.65
2023-01-13T00:30:10.220Z,99857.82
2023-01-13T00:32:22.263Z,99854.58
2023-01-13T00:34:33.916Z,99852.52
2023-01-13T00:36:45.857Z,99848.86
2023-01-13T00:38:59.167Z,99848.52
2023-01-13T00:41:13.315Z,99848.60
2023-01-13T00:43:26.942Z,99845.94
2023-01-13T00:45:38.943Z,99845.39
2023-01-13T00:47:50.633Z,99843.30
2023-01-13T00:50:02.724Z,99844.34
2023-01-13T00:52:14.516Z,99840.26
2023-01-13T00:54:26.632Z,99839.13
2023-01-13T00:56:40.554Z,99835.51
2023-01-13T00:58:53.687Z,99832.79
2023-01-13T01:01:08.971Z,99825.87
2023-01-13T01:03:20.942Z,99824.73
2023-01-13T01:05:34.212Z,99824.16
2023-01-13T01:07:46.467Z,99825.40
2023-01-13T01:09:58.154Z,99826.28
2023-01-13T01:12:10.252Z,99822.73
2023-01-13T01:14:22.302Z,99817.53
2023-01-13T01:16:35.143Z,99819.11
2023-01-13T01:18:49.519Z,99816.52
2023-01-13T01:21:02.123Z,99817.85
2023-01-13T01:23:13.809Z,99814.48
2023-01-13T01:25:25.496Z,99814.67
2023-01-13T01:27:37.287Z,99812.69
2023-01-13T01:29:48.975Z,99805.27
2023-01-13T01:32:00.763Z,99803.39
2023-01-13T01:34:12.457Z,99804.27
2023-01-13T01:36:30.125Z,99802.05
2023-01-13T01:38:42.540Z,99803.44
2023-01-13T01:40:54.480Z,99804.20
2023-01-13T01:43:34.837Z,99802.20
2023-01-13T01:45:46.838Z,99796.73
2023-01-13T01:48:05.943Z,99796.86
2023-01-13T01:50:19.592Z,99796.45
2023-01-13T01:52:40.021Z,99791.11
2023-01-13T01:55:14.136Z,99796.15
2023-01-13T01:57:55.724Z,99795.13
2023-01-13T02:00:08.741Z,99791.83
2023-01-13T02:02:27.671Z,99788.30
2023-01-13T02:04:50.547Z,99788.04
2023-01-13T02:07:04.030Z,99779.79
2023-01-13T02:09:16.146Z,99784.41
2023-01-13T02:11:49.058Z,99779.13
2023-01-13T02:14:01.156Z,99775.91
2023-01-13T02:16:21.284Z,99774.29
2023-01-13T02:18:52.179Z,99772.79
2023-01-13T02:21:25.783Z,99771.83
2023-01-13T02:24:26.313Z,99771.34
2023-01-13T02:26:46.192Z,99777.84
2023-01-13T02:29:54.815Z,99767.41
2023-01-13T02:32:12.751Z,99770.23
2023-01-13T02:34:41.742Z,99772.34
2023-01-13T02:37:03.984Z,99768.55
2023-01-13T02:39:36.655Z,99767.14
2023-01-13T02:42:15.788Z,99766.50
2023-01-13T02:44:44.268Z,99763.13
2023-01-13T02:47:20.682Z,99762.29
2023-01-13T02:50:13.494Z,99763.30
2023-01-13T02:52:46.266Z,99757.80
2023-01-13T02:55:03.901Z,99754.49
2023-01-13T02:57:18.448Z,99751.98
2023-01-13T02:59:31.465Z,99754.61
2023-01-13T03:01:43.653Z,99752.36
2023-01-13T03:03:55.675Z,99754.93
2023-01-13T03:06:37.912Z,99751.80
2023-01-13T03:08:55.082Z,99750.95
2023-01-13T03:11:13.137Z,99748.31
2023-01-13T03:13:38.119Z,99748.94
2023-01-13T03:15:58.615Z,99749.10
2023-01-13T03:18:28.951Z,99744.98
2023-01-13T03:20:48.384Z,99744.59
2023-01-13T03:23:33.188Z,99747.73
2023-01-13T03:25:56.647Z,99746.89
2023-01-13T03:28:19.765Z,99740.02
2023-01-13T03:30:48.181Z,99739.88
2023-01-13T03:33:06.536Z,99741.72
2023-01-13T03:35:35.307Z,99745.25
2023-01-13T03:37:53.696Z,99742.79
2023-01-13T03:40:20.901Z,99742.08
2023-01-13T03:42:36.883Z,99739.98
2023-01-13T03:44:48.783Z,99738.23
2023-01-13T03:47:21.063Z,99740.89
2023-01-13T03:49:54.039Z,99743.52
2023-01-13T03:52:12.341Z,99739.89
2023-01-13T03:54:28.418Z,99736.76
2023-01-13T03:56:47.641Z,99736.38
2023-01-13T03:59:02.821Z,99737.88
2023-01-13T04:01:19.307Z,99738.00
2023-01-13T04:04:07.635Z,99740.11
2023-01-13T04:06:47.608Z,99738.75
2023-01-13T04:09:13.216Z,99738.60
2023-01-13T04:11:43.127Z,99732.86
2023-01-13T04:13:57.606Z,99733.65
2023-01-13T04:16:11.961Z,99733.61
2023-01-13T04:18:28.026Z,99730.30
2023-01-13T04:20:41.555Z,99732.97
2023-01-13T04:22:53.344Z,99730.51
2023-01-13T04:25:05.748Z,99729.42
2023-01-13T04:27:17.843Z,99730.88
2023-01-13T04:29:29.632Z,99723.96
2023-01-13T04:31:41.321Z,99726.54
2023-01-13T04:33:53.212Z,99727.20
2023-01-13T04:36:06.034Z,99720.66
2023-01-13T04:38:21.316Z,99725.70
2023-01-13T04:40:33.629Z,99723.91
2023-01-13T04:42:45.599Z,99724.07
2023-01-13T04:44:57.595Z,99719.87
2023-01-13T04:47:09.386Z,99722.60
2023-01-13T04:49:21.496Z,99724.95
2023-01-13T04:51:35.005Z,99722.91
2023-01-13T04:53:47.006Z,99722.73
2023-01-13T04:55:58.587Z,99723.28
2023-01-13T04:58:11.089Z,99725.33
2023-01-13T05:00:23.716Z,99721.95
2023-01-13T05:02:35.595Z,99717.73
2023-01-13T05:04:48.371Z,99721.50
2023-01-13T05:07:00.301Z,99724.66
2023-01-13T05:09:13.596Z,99726.34
2023-01-13T05:11:43.977Z,99727.09
2023-01-13T05:14:14.893Z,99729.64
2023-01-13T05:16:45.731Z,99727.20
2023-01-13T05:18:57.625Z,99730.85
2023-01-13T05:21:29.379Z,99727.69
2023-01-13T05:24:17.110Z,99731.23
2023-01-13T05:26:28.801Z,99729.90
2023-01-13T05:28:40.791Z,99726.10
2023-01-13T05:30:52.763Z,99727.27
2023-01-13T05:33:05.294Z,99726.90
2023-01-13T05:35:17.398Z,99729.64
2023-01-13T05:37:29.285Z,99726.35
2023-01-13T05:40:00.846Z,99727.08
2023-01-13T05:42:31.776Z,99727.35
2023-01-13T05:44:43.668Z,99733.25
2023-01-13T05:46:55.569Z,99729.49
2023-01-13T05:49:07.657Z,99733.75
2023-01-13T05:51:22.727Z,99731.86
2023-01-13T05:53:35.034Z,99729.10
2023-01-13T05:55:47.241Z,99732.45
2023-01-13T05:57:59.332Z,99733.87
2023-01-13T06:00:12.247Z,99733.14
2023-01-13T06:02:25.155Z,99740.19
2023-01-13T06:04:37.456Z,99741.23
2023-01-13T06:06:49.964Z,99735.80
2023-01-13T06:09:01.560Z,99734.65
2023-01-13T06:11:14.677Z,99736.63
2023-01-13T06:13:26.977Z,99737.16
2023-01-13T06:16:06.898Z,99736.08
2023-01-13T06:18:24.656Z,99738.86
2023-01-13T06:20:38.699Z,99739.88
2023-01-13T06:22:55.523Z,99739.73
2023-01-13T06:25:19.888Z,99742.02
2023-01-13T06:27:31.957Z,99740.14
2023-01-13T06:29:43.982Z,99741.78
2023-01-13T06:31:56.486Z,99744.11
2023-01-13T06:34:12.999Z,99744.84
2023-01-13T06:36:48.971Z,99746.77
2023-01-13T06:39:03.188Z,99746.30
2023-01-13T06:41:16.011Z,99749.98
2023-01-13T06:43:28.305Z,99745.54
2023-01-13T06:45:45.700Z,99742.08
2023-01-13T06:47:59.716Z,99748.23
2023-01-13T06:50:11.984Z,99744.56
2023-01-13T06:52:24.587Z,99745.14
2023-01-13T06:54:36.371Z,99746.02
2023-01-13T06:56:49.286Z,99749.69
2023-01-13T06:59:00.865Z,99747.90
2023-01-13T07:01:12.840Z,99747.92
2023-01-13T07:03:24.867Z,99747.34
2023-01-13T07:05:36.957Z,99751.27
2023-01-13T07:07:48.643Z,99746.46
2023-01-13T07:10:00.741Z,99747.83
2023-01-13T07:12:12.737Z,99748.63
2023-01-13T07:14:43.775Z,99748.88
2023-01-13T07:16:55.774Z,99755.34
2023-01-13T07:19:07.456Z,99759.39
2023-01-13T07:21:20.270Z,99754.44
2023-01-13T07:23:35.090Z,99756.39
2023-01-13T07:25:46.928Z,99759.80
2023-01-13T07:27:58.818Z,99761.59
2023-01-13T07:30:11.579Z,99760.99
2023-01-13T07:32:23.432Z,99765.08
2023-01-13T07:34:35.618Z,99765.98
2023-01-13T07:36:47.423Z,99768.28
2023-01-13T07:38:59.413Z,99768.11
2023-01-13T07:41:34.026Z,99770.64
2023-01-13T07:43:45.926Z,99771.56
2023-01-13T07:46:04.788Z,99772.64
2023-01-13T07:48:16.873Z,99777.77
2023-01-13T07:50:28.869Z,99773.46
2023-01-13T07:52:40.874Z,99775.34
2023-01-13T07:54:52.656Z,99778.02
2023-01-13T07:57:04.853Z,99774.76
2023-01-13T07:59:16.964Z,99772.98
2023-01-13T08:01:29.345Z,99771.97
2023-01-13T08:03:41.654Z,99769.52
2023-01-13T08:05:53.663Z,99770.08
2023-01-13T08:08:06.264Z,99773.54
2023-01-13T08:10:17.946Z,99777.62
2023-01-13T08:12:52.198Z,99778.07
2023-01-13T08:15:10.275Z,99776.14
2023-01-13T08:17:22.509Z,99778.21
2023-01-13T08:19:34.905Z,99781.05
2023-01-13T08:21:46.905Z,99786.08
2023-01-13T08:23:58.999Z,99786.70
2023-01-13T08:26:14.746Z,99789.60
2023-01-13T08:28:26.677Z,99793.98
2023-01-13T08:30:39.287Z,99790.42
2023-01-13T08:32:51.072Z,99794.77
2023-01-13T08:35:03.374Z,99794.17
2023-01-13T08:37:15.268Z,99796.67
2023-01-13T08:39:27.263Z,99795.52
2023-01-13T08:41:58.736Z,99798.35
2023-01-13T08:44:11.015Z,99799.50
2023-01-13T08:46:23.253Z,99803.17
2023-01-13T08:48:35.641Z,99802.86
2023-01-13T08:50:47.922Z,99801.39
2023-01-13T08:53:00.524Z,99800.91
2023-01-13T08:55:12.421Z,99803.89
2023-01-13T08:57:24.032Z,99807.55
2023-01-13T08:59:36.204Z,99805.52
2023-01-13T09:01:48.122Z,99805.93
2023-01-13T09:04:00.073Z,99807.02
2023-01-13T09:06:12.315Z,99809.52
2023-01-13T09:08:24.725Z,99808.91
2023-01-13T09:10:36.973Z,99808.01
2023-01-13T09:13:07.630Z,99809.61
2023-01-13T09:15:19.831Z,99808.68
2023-01-13T09:17:31.722Z,99809.05
2023-01-13T09:19:43.512Z,99811.20
2023-01-13T09:21:56.665Z,99810.10
2023-01-13T09:24:09.139Z,99809.23
2023-01-13T09:26:21.778Z,99808.10
2023-01-13T09:28:33.738Z,99805.07
2023-01-13T09:30:46.010Z,99808.95
2023-01-13T09:33:17.912Z,99802.31
2023-01-13T09:35:29.798Z,99800.63
2023-01-13T09:37:41.943Z,99797.42
2023-01-13T09:39:53.889Z,99796.45
2023-01-13T09:42:37.117Z,99799.33
2023-01-13T09:45:04.878Z,99795.20
2023-01-13T09:47:29.469Z,99801.50
2023-01-13T09:49:43.108Z,99795.86
2023-01-13T09:52:02.477Z,99791.92
2023-01-13T09:54:32.465Z,99791.72
2023-01-13T09:56:44.481Z,99791.41
2023-01-13T09:58:56.272Z,99792.63
2023-01-13T10:01:11.464Z,99792.67
2023-01-13T10:03:29.070Z,99791.04
2023-01-13T10:05:47.434Z,99788.76
2023-01-13T10:08:05.606Z,99789.77
2023-01-13T10:10:36.591Z,99789.38
2023-01-13T10:13:09.272Z,99787.21
2023-01-13T10:15:26.021Z,99783.64
2023-01-13T10:17:53.483Z,99783.57
2023-01-13T10:20:32.363Z,99784.09
2023-01-13T10:23:11.896Z,99778.95
2023-01-13T10:25:43.046Z,99777.83
2023-01-13T10:28:01.616Z,99776.20
2023-01-13T10:30:31.570Z,99774.09
2023-01-13T10:32:50.056Z,99772.55
2023-01-13T10:35:02.473Z,99774.02
2023-01-13T10:37:22.466Z,99780.39
2023-01-13T10:39:44.166Z,99783.81
2023-01-13T10:42:07.614Z,99785.25
2023-01-13T10:44:19.827Z,99778.29
2023-01-13T10:46:49.853Z,99776.06
2023-01-13T10:49:15.052Z,99774.40
2023-01-13T10:51:31.370Z,99775.66
2023-01-13T10:53:51.535Z,99769.34
2023-01-13T10:56:04.857Z,99770.20
2023-01-13T10:58:19.716Z,99768.73
2023-01-13T11:00:35.039Z,99770.08
2023-01-13T11:03:18.426Z,99767.91
2023-01-13T11:05:30.319Z,99773.89
2023-01-13T11:07:50.523Z,99768.85
2023-01-13T11:10:27.382Z,99769.98
2023-01-13T11:12:54.840Z,99768.06
2023-01-13T11:15:14.038Z,99763.86
2023-01-13T11:17:38.702Z,99759.67
2023-01-13T11:20:00.318Z,99758.56
2023-01-13T11:22:21.216Z,99759.36
2023-01-13T11:24:51.005Z,99761.83
2023-01-13T11:27:44.913Z,99758.98
2023-01-13T11:30:15.333Z,99761.30
2023-01-13T11:32:35.250Z,99758.27
2023-01-13T11:34:55.281Z,99756.18
2023-01-13T11:37:19.267Z,99758.13
2023-01-13T11:39:55.539Z,99755.67
2023-01-13T11:42:21.711Z,99751.59
2023-01-13T11:44:46.462Z,99754.05
2023-01-13T11:46:58.473Z,99749.45
2023-01-13T11:49:22.567Z,99751.64
2023-01-13T11:51:53.262Z,99756.83
2023-01-13T11:54:34.246Z,99756.23
2023-01-13T11:57:24.320Z,99750.99
2023-01-13T12:00:03.149Z,99751.38
2023-01-13T12:02:48.972Z,99750.23
2023-01-13T12:05:15.375Z,99751.44
2023-01-13T12:07:54.534Z,99752.90
2023-01-13T12:10:18.124Z,99746.72
2023-01-13T12:13:01.729Z,99745.06
2023-01-13T12:15:52.822Z,99748.45
2023-01-13T12:18:11.874Z,99750.88
2023-01-13T12:20:24.894Z,99753.51
2023-01-13T12:22:37.910Z,99750.59
2023-01-13T12:24:57.916Z,99751.44
2023-01-13T12:27:22.275Z,99753.67
2023-01-13T12:29:36.834Z,99757.40
2023-01-13T12:31:50.650Z,99754.79
2023-01-13T12:34:27.245Z,99752.23
2023-01-13T12:36:55.832Z,99758.55
2023-01-13T12:39:45.712Z,99761.08
2023-01-13T12:42:30.372Z,99759.30
2023-01-13T12:45:11.189Z,99761.35
2023-01-13T12:47:35.288Z,99762.67
2023-01-13T12:49:47.517Z,99770.95
2023-01-13T12:52:13.877Z,99772.83
2023-01-13T12:54:32.297Z,99777.35
2023-01-13T12:56:45.520Z,99776.30
2023-01-13T12:59:19.628Z,99775.48
2023-01-13T13:01:36.263Z,99771.70
2023-01-13T13:04:08.103Z,99767.92
2023-01-13T13:06:24.184Z,99761.47
2023-01-13T13:08:51.232Z,99766.63
2023-01-13T13:11:40.305Z,99768.77
2023-01-13T13:13:52.393Z,99767.95
2023-01-13T13:16:47.868Z,99776.41
2023-01-13T13:19:17.724Z,99773.23
2023-01-13T13:22:08.116Z,99770.66
2023-01-13T13:24:20.008Z,99765.16
2023-01-13T13:26:37.063Z,99759.48
2023-01-13T13:29:07.652Z,99759.77
2023-01-13T13:31:24.361Z,99754.41
2023-01-13T13:33:49.970Z,99751.77
2023-01-13T13:36:37.342Z,99736.64
2023-01-13T13:39:24.312Z,99735.63
2023-01-13T13:41:56.173Z,99734.91
2023-01-13T13:44:46.052Z,99726.66
2023-01-13T13:47:02.281Z,99727.31
2023-01-13T13:49:20.295Z,99732.94
2023-01-13T13:51:46.412Z,99740.91
2023-01-13T13:53:59.688Z,99741.73
2023-01-13T13:56:26.693Z,99737.77
2023-01-13T13:58:38.674Z,99747.86
2023-01-13T14:00:51.280Z,99758.11
2023-01-13T14:03:21.196Z,99764.55
2023-01-13T14:05:35.239Z,99762.14
2023-01-13T14:07:50.113Z,99765.07
2023-01-13T14:10:02.267Z,99761.39
2023-01-13T14:12:20.176Z,99776.50
2023-01-13T14:14:32.188Z,99795.19
2023-01-13T14:16:44.297Z,99794.04
2023-01-13T14:18:56.628Z,99800.02
2023-01-13T14:21:25.676Z,99796.54
2023-01-13T14:23:37.491Z,99804.46
2023-01-13T14:25:51.197Z,99807.57
2023-01-13T14:28:17.430Z,99809.23
2023-01-13T14:30:29.519Z,99810.48
2023-01-13T14:32:42.124Z,99815.09
2023-01-13T14:34:59.296Z,99818.42
2023-01-13T14:37:39.388Z,99819.77
2023-01-13T14:39:51.398Z,99814.34
2023-01-13T14:42:03.887Z,99818.03
2023-01-13T14:44:25.974Z,99814.46
2023-01-13T14:46:43.158Z,99802.65
2023-01-13T14:49:01.345Z,99800.98
2023-01-13T14:51:21.661Z,99821.25
2023-01-13T14:53:46.903Z,99824.85
2023-01-13T14:55:59.166Z,99824.27
2023-01-13T14:58:28.710Z,99819.48
2023-01-13T15:00:40.224Z,99821.63
2023-01-13T15:02:58.248Z,99822.66
2023-01-13T15:05:19.297Z,99816.52
2023-01-13T15:07:32.539Z,99824.52
2023-01-13T15:09:45.597Z,99827.61
2023-01-13T15:11:58.919Z,99833.82
2023-01-13T15:14:11.677Z,99833.45
2023-01-13T15:16:27.487Z,99833.83
2023-01-13T15:18:41.363Z,99841.00
2023-01-13T15:20:53.460Z,99844.94
2023-01-13T15:23:06.007Z,99842.42
2023-01-13T15:25:19.030Z,99845.27
2023-01-13T15:27:32.618Z,99841.05
2023-01-13T15:29:45.471Z,99846.51
2023-01-13T15:31:57.467Z,99854.73
2023-01-13T15:34:12.559Z,99856.82
2023-01-13T15:36:31.485Z,99860.91
2023-01-13T15:38:43.074Z,99867.05
2023-01-13T15:40:55.177Z,99871.20
2023-01-13T15:43:25.802Z,99870.62
2023-01-13T15:45:56.939Z,99878.89
2023-01-13T15:48:08.773Z,99880.95
2023-01-13T15:50:21.056Z,99884.47
2023-01-13T15:52:33.443Z,99882.98
2023-01-13T15:54:46.358Z,99884.42
2023-01-13T15:56:58.559Z,99877.25
2023-01-13T15:59:21.379Z,99880.23
2023-01-13T16:01:33.537Z,99877.75
2023-01-13T16:03:45.805Z,99881.77
2023-01-13T16:05:58.116Z,99883.16
2023-01-13T16:08:21.945Z,99885.09
2023-01-13T16:10:34.187Z,99888.56
2023-01-13T16:12:46.590Z,99894.41
2023-01-13T16:14:59.609Z,99898.18
2023-01-13T16:17:17.102Z,99895.73
2023-01-13T16:19:29.138Z,99899.70
2023-01-13T16:21:40.826Z,99905.70
2023-01-13T16:23:53.953Z,99904.13
2023-01-13T16:26:11.484Z,99909.21
2023-01-13T16:28:28.252Z,99911.29
2023-01-13T16:30:40.699Z,99917.40
2023-01-13T16:32:53.628Z,99928.41
2023-01-13T16:35:05.927Z,99927.38
2023-01-13T16:37:21.189Z,99924.77
2023-01-13T16:39:33.616Z,99929.33
2023-01-13T16:41:45.652Z,99934.95
2023-01-13T16:43:57.299Z,99934.55
2023-01-13T16:46:27.940Z,99936.21
2023-01-13T16:48:39.934Z,99935.75
2023-01-13T16:50:51.932Z,99941.22
2023-01-13T16:53:04.853Z,99938.63
2023-01-13T16:55:16.665Z,99939.43
2023-01-13T16:57:29.045Z,99943.48
2023-01-13T16:59:40.837Z,99946.67
2023-01-13T17:01:53.588Z,99946.22
2023-01-13T17:04:07.001Z,99949.64
2023-01-13T17:06:24.717Z,99951.92
2023-01-13T17:08:36.576Z,99954.34
2023-01-13T17:10:50.722Z,99952.25
2023-01-13T17:13:14.713Z,99950.39
2023-01-13T17:15:27.905Z,99948.64
2023-01-13T17:17:43.299Z,99946.42
2023-01-13T17:19:55.372Z,99943.80
2023-01-13T17:22:07.108Z,99942.63
2023-01-13T17:24:19.623Z,99946.58
2023-01-13T17:26:37.458Z,99946.66
2023-01-13T17:28:49.339Z,99948.70
2023-01-13T17:31:01.131Z,99950.59
2023-01-13T17:33:13.533Z,99949.96
2023-01-13T17:35:25.540Z,99948.17
2023-01-13T17:37:37.299Z,99949.46
2023-01-13T17:39:51.094Z,99948.00
2023-01-13T17:42:02.839Z,99952.38
2023-01-13T17:44:15.761Z,99947.55
2023-01-13T17:46:27.968Z,99949.78
2023-01-13T17:48:40.372Z,99945.48
2023-01-13T17:50:53.433Z,99948.20
2023-01-13T17:53:05.583Z,99948.77
2023-01-13T17:55:20.556Z,99952.40
2023-01-13T17:57:32.644Z,99952.93
2023-01-13T17:59:47.095Z,99944.77
2023-01-13T18:01:59.247Z,99948.69
2023-01-13T18:04:16.934Z,99950.35
2023-01-13T18:06:29.478Z,99950.70
2023-01-13T18:08:41.435Z,99950.91
2023-01-13T18:10:54.432Z,99956.64
2023-01-13T18:13:08.067Z,99956.43
2023-01-13T18:15:20.063Z,99953.90
2023-01-13T18:17:32.157Z,99951.73
2023-01-13T18:20:14.580Z,99951.98
2023-01-13T18:22:46.839Z,99956.63
2023-01-13T18:25:17.679Z,99960.08
2023-01-13T18:27:35.893Z,99966.54
2023-01-13T18:29:53.309Z,99967.58
2023-01-13T18:32:10.208Z,99973.24
2023-01-13T18:34:26.374Z,99977.98
2023-01-13T18:36:43.234Z,99975.73
2023-01-13T18:38:58.782Z,99974.20
2023-01-13T18:41:32.527Z,99974.17
2023-01-13T18:43:47.877Z,99976.75
2023-01-13T18:46:03.510Z,99980.24
2023-01-13T18:48:18.826Z,99982.23
2023-01-13T18:50:38.464Z,99984.35
2023-01-13T18:52:55.038Z,99989.73
2023-01-13T18:55:11.682Z,99989.23
2023-01-13T18:57:27.384Z,99996.02
2023-01-13T18:59:42.482Z,99998.33
2023-01-13T19:01:59.264Z,100004.37
2023-01-13T19:04:17.649Z,100008.60
2023-01-13T19:06:34.926Z,100007.25
2023-01-13T19:08:54.008Z,100013.70
2023-01-13T19:11:09.591Z,100022.34
2023-01-13T19:13:30.938Z,100026.03
2023-01-13T19:15:47.320Z,100028.89
2023-01-13T19:18:15.587Z,100028.55
2023-01-13T19:20:31.566Z,100032.15
2023-01-13T19:22:55.057Z,100029.20
2023-01-13T19:25:15.319Z,100025.15
2023-01-13T19:27:31.418Z,100024.02
2023-01-13T19:29:52.961Z,100026.25
2023-01-13T19:32:08.355Z,100022.58
2023-01-13T19:34:24.393Z,100020.58
2023-01-13T19:36:36.398Z,100022.98
2023-01-13T19:38:49.949Z,100021.68
2023-01-13T19:41:32.850Z,100020.23
2023-01-13T19:44:03.158Z,100022.61
2023-01-13T19:46:16.239Z,100027.09
2023-01-13T19:48:28.025Z,100028.63
2023-01-13T19:50:40.580Z,100029.55
2023-01-13T19:52:52.368Z,100031.66
2023-01-13T19:55:04.219Z,100032.20
2023-01-13T19:57:15.954Z,100036.06
2023-01-13T19:59:32.758Z,100040.17
2023-01-13T20:01:44.898Z,100048.48
2023-01-13T20:04:02.998Z,100054.55
2023-01-13T20:06:14.891Z,100060.33
2023-01-13T20:08:26.779Z,100061.29
2023-01-13T20:10:39.193Z,100063.44
2023-01-13T20:12:52.024Z,100067.83
2023-01-13T20:15:05.993Z,100072.83
2023-01-13T20:17:20.353Z,100077.55
2023-01-13T20:19:32.593Z,100082.31
2023-01-13T20:21:44.895Z,100080.20
2023-01-13T20:23:57.093Z,100082.92
2023-01-13T20:26:09.028Z,100086.55
2023-01-13T20:28:20.879Z,100087.19
2023-01-13T20:30:32.875Z,100088.66
2023-01-13T20:32:45.185Z,100088.84
2023-01-13T20:34:57.168Z,100091.18
2023-01-13T20:37:08.958Z,100090.14
2023-01-13T20:39:23.206Z,100092.52
2023-01-13T20:41:55.407Z,100095.34
2023-01-13T20:44:07.629Z,100100.25
2023-01-13T20:46:20.307Z,100102.20
2023-01-13T20:48:31.971Z,100101.44
2023-01-13T20:50:44.478Z,100103.80
2023-01-13T20:52:56.486Z,100101.13
2023-01-13T20:55:09.697Z,100100.79
2023-01-13T20:57:21.692Z,100103.66
2023-01-13T20:59:34.205Z,100107.73
2023-01-13T21:01:46.055Z,100111.52
2023-01-13T21:04:00.241Z,100113.27
2023-01-13T21:06:12.262Z,100114.08
2023-01-13T21:08:24.331Z,100113.58
2023-01-13T21:10:36.528Z,100111.02
2023-01-13T21:13:09.513Z,100111.11
2023-01-13T21:15:22.911Z,100105.52
2023-01-13T21:17:53.435Z,100103.48
2023-01-13T21:20:11.293Z,100102.51
2023-01-13T21:22:23.193Z,100098.45
2023-01-13T21:24:34.883Z,100102.02
2023-01-13T21:26:48.825Z,100101.52
2023-01-13T21:29:02.352Z,100104.05
2023-01-13T21:31:14.031Z,100105.64
2023-01-13T21:33:26.443Z,100110.25
2023-01-13T21:35:41.719Z,100113.90
2023-01-13T21:37:54.375Z,100118.61
2023-01-13T21:40:07.937Z,100123.30
2023-01-13T21:42:38.491Z,100119.98
2023-01-13T21:45:08.833Z,100119.34
2023-01-13T21:47:40.366Z,100120.81
2023-01-13T21:49:52.391Z,100121.08
2023-01-13T21:52:06.411Z,100122.27
2023-01-13T21:54:18.655Z,100119.86
2023-01-13T21:56:30.253Z,100118.44
2023-01-13T21:58:41.649Z,100121.30
2023-01-13T22:00:54.224Z,100122.54
2023-01-13T22:03:08.235Z,100126.33
2023-01-13T22:05:22.616Z,100115.89
2023-01-13T22:07:35.484Z,100117.02
2023-01-13T22:09:47.278Z,100116.25
2023-01-13T22:12:00.612Z,100116.63
2023-01-13T22:14:14.032Z,100113.86
2023-01-13T22:16:26.246Z,100120.08
2023-01-13T22:18:38.547Z,100119.95
2023-01-13T22:20:50.689Z,100123.73
2023-01-13T22:23:02.929Z,100124.05
2023-01-13T22:25:16.873Z,100129.64
2023-01-13T22:27:30.814Z,100129.61
2023-01-13T22:29:42.911Z,100132.27
2023-01-13T22:31:54.745Z,100133.84
2023-01-13T22:34:06.385Z,100141.02
2023-01-13T22:36:18.600Z,100140.77
2023-01-13T22:38:31.401Z,100148.39
2023-01-13T22:40:43.396Z,100147.14
2023-01-13T22:42:55.190Z,100140.39
2023-01-13T22:45:10.799Z,100149.02
2023-01-13T22:47:22.965Z,100150.27
2023-01-13T22:49:34.957Z,100149.31
2023-01-13T22:51:47.258Z,100151.41
2023-01-13T22:53:59.256Z,100151.28
2023-01-13T22:56:20.355Z,100154.23
2023-01-13T22:58:32.765Z,100158.17
2023-01-13T23:00:44.869Z,100160.74
2023-01-13T23:02:56.963Z,100165.68
2023-01-13T23:05:08.965Z,100164.31
2023-01-13T23:07:20.849Z,100168.67
2023-01-13T23:09:32.641Z,100167.70
2023-01-13T23:11:46.236Z,100171.30
2023-01-13T23:14:04.656Z,100173.93
2023-01-13T23:16:21.273Z,100171.65
2023-01-13T23:18:34.032Z,100172.79
2023-01-13T23:20:46.128Z,100178.38
2023-01-13T23:22:59.404Z,100177.52
2023-01-13T23:25:11.808Z,100179.46
2023-01-13T23:27:24.057Z,100181.55
2023-01-13T23:29:35.539Z,100182.36
2023-01-13T23:31:47.904Z,100183.98
2023-01-13T23:34:00.660Z,100183.02
2023-01-13T23:36:19.153Z,100183.46
2023-01-13T23:38:31.813Z,100186.13
2023-01-13T23:40:45.550Z,100189.74
2023-01-13T23:42:57.750Z,100186.59
2023-01-13T23:45:10.564Z,100180.09
2023-01-13T23:47:22.152Z,100185.85
2023-01-13T23:49:33.939Z,100181.76
2023-01-13T23:51:45.624Z,100182.74
2023-01-13T23:53:59.444Z,100181.13
2023-01-13T23:56:14.618Z,100179.79
2023-01-13T23:58:27.343Z,100182.95
